Time;durP1;ratioP1;P1;durP2;ratioP2;P2;SDS_P1;SDS_P2;PMS_P1;PMS_P2;Temp;Humidity;BMP_temperature;BMP_pressure;BME280_temperature;BME280_humidity;BME280_pressure;Samples;Min_cycle;Max_cycle;Signal;HPM_P1;HPM_P2
2022/07/21 00:01:03;;;;;;;2.75;2.25;;;23.60;94.10;;;;;;5107878;27;45151;-74
2022/07/21 00:03:30;;;;;;;5.20;2.60;;;23.60;94.00;;;;;;5107280;27;45485;-74
2022/07/21 00:05:57;;;;;;;2.95;2.33;;;23.60;94.20;;;;;;5106985;27;45312;-74
2022/07/21 00:08:24;;;;;;;3.38;2.20;;;23.60;94.40;;;;;;5107168;27;45293;-74
2022/07/21 00:10:52;;;;;;;2.83;2.47;;;23.60;94.30;;;;;;5107281;27;45218;-74
2022/07/21 00:13:19;;;;;;;3.13;2.40;;;23.60;94.20;;;;;;5107121;27;45577;-74
2022/07/21 00:15:46;;;;;;;2.88;2.15;;;23.50;94.30;;;;;;5107024;27;45232;-74
2022/07/21 00:18:14;;;;;;;2.67;2.25;;;23.50;94.90;;;;;;5107064;27;45212;-74
2022/07/21 00:20:41;;;;;;;3.40;2.40;;;23.50;94.40;;;;;;5106993;27;45113;-74
2022/07/21 00:23:08;;;;;;;5.20;2.13;;;23.60;94.40;;;;;;5105903;27;45075;-74
2022/07/21 00:25:35;;;;;;;3.13;2.30;;;23.50;94.40;;;;;;5106554;27;47642;-74
2022/07/21 00:28:02;;;;;;;2.53;2.13;;;23.60;94.50;;;;;;5106749;27;45348;-74
2022/07/21 00:30:29;;;;;;;3.47;2.40;;;23.60;94.50;;;;;;5106844;27;45382;-74
2022/07/21 00:32:56;;;;;;;3.30;2.50;;;23.50;94.40;;;;;;5106763;27;45467;-74
2022/07/21 00:35:24;;;;;;;3.00;2.28;;;23.50;94.60;;;;;;5106810;27;45343;-74
2022/07/21 00:37:51;;;;;;;3.78;2.33;;;23.50;94.50;;;;;;5106618;27;45297;-74
2022/07/21 00:40:18;;;;;;;3.30;2.10;;;23.50;94.20;;;;;;5106946;27;45241;-74
2022/07/21 00:42:45;;;;;;;4.00;2.28;;;23.50;94.30;;;;;;5106875;27;45218;-74
2022/07/21 00:45:13;;;;;;;2.85;2.20;;;23.50;94.50;;;;;;5106647;27;45464;-75
2022/07/21 00:47:40;;;;;;;2.80;2.10;;;23.50;94.30;;;;;;5106585;27;45121;-74
2022/07/21 00:50:11;;;;;;;2.83;1.85;;;23.50;94.50;;;;;;5106314;27;45170;-74
2022/07/21 00:52:39;;;;;;;2.80;2.10;;;23.50;94.50;;;;;;5107219;27;45384;-74
2022/07/21 00:55:09;;;;;;;2.33;2.03;;;23.50;95.20;;;;;;5106674;27;45172;-74
2022/07/21 01:01:44;;;;;;;2.45;2.03;;;23.50;94.40;;;;;;5103591;27;45210;-74
2022/07/21 01:04:11;;;;;;;2.55;2.10;;;23.50;94.50;;;;;;5106513;27;45143;-74
2022/07/21 01:06:38;;;;;;;2.63;1.85;;;23.50;94.30;;;;;;5106366;27;45299;-74
2022/07/21 01:09:06;;;;;;;3.28;2.13;;;23.50;94.20;;;;;;5106334;27;45391;-74
2022/07/21 01:11:33;;;;;;;3.17;2.10;;;23.50;94.20;;;;;;5106215;27;45217;-74
2022/07/21 01:14:00;;;;;;;2.10;1.90;;;23.50;94.70;;;;;;5106190;27;45447;-74
2022/07/21 01:16:27;;;;;;;2.50;2.10;;;23.50;94.10;;;;;;5105956;27;46296;-74
2022/07/21 01:18:55;;;;;;;4.47;2.03;;;23.60;94.40;;;;;;5106483;27;45207;-74
2022/07/21 01:21:32;;;;;;;2.05;1.63;;;23.50;94.10;;;;;;5106484;27;45080;-74
2022/07/21 01:24:00;;;;;;;3.17;2.13;;;23.50;94.30;;;;;;5106676;27;45451;-74
2022/07/21 01:26:27;;;;;;;2.63;2.20;;;23.50;94.10;;;;;;5105906;27;47130;-74
2022/07/21 01:28:55;;;;;;;2.08;1.55;;;23.50;94.20;;;;;;5106118;27;45295;-74
2022/07/21 01:31:22;;;;;;;2.15;1.95;;;23.50;94.10;;;;;;5106171;27;45339;-74
2022/07/21 01:33:49;;;;;;;3.17;2.40;;;23.50;94.10;;;;;;5106365;27;45236;-74
2022/07/21 01:36:17;;;;;;;2.55;2.10;;;23.50;94.20;;;;;;5109154;27;45478;-74
2022/07/21 01:41:32;;;;;;;2.30;1.80;;;23.50;94.20;;;;;;5067263;27;45366;-74
2022/07/21 01:44:02;;;;;;;2.28;1.90;;;23.50;94.00;;;;;;5110306;27;45115;-74
2022/07/21 01:46:30;;;;;;;2.63;1.80;;;23.50;94.00;;;;;;5109330;27;47955;-74
2022/07/21 01:48:58;;;;;;;2.30;1.70;;;23.50;93.90;;;;;;5109407;27;45108;-74
2022/07/21 01:51:25;;;;;;;3.75;1.90;;;23.50;94.10;;;;;;5109037;27;45556;-74
2022/07/21 01:53:53;;;;;;;2.83;2.03;;;23.50;93.90;;;;;;5109276;27;45672;-74
2022/07/21 01:56:21;;;;;;;2.83;1.80;;;23.50;94.00;;;;;;5109196;27;46701;-74
2022/07/21 01:58:49;;;;;;;2.50;1.77;;;23.50;94.10;;;;;;5109304;27;45252;-74
2022/07/21 02:01:16;;;;;;;2.53;1.85;;;23.50;94.00;;;;;;5109034;27;45233;-74
2022/07/21 02:03:44;;;;;;;3.03;1.98;;;23.50;93.90;;;;;;5109229;27;45196;-74
2022/07/21 02:06:11;;;;;;;2.45;1.75;;;23.50;94.30;;;;;;5108694;27;46419;-74
2022/07/21 02:08:38;;;;;;;2.67;1.73;;;23.50;94.00;;;;;;5108988;27;45132;-74
2022/07/21 02:11:07;;;;;;;2.25;1.90;;;23.50;93.80;;;;;;5109315;27;45355;-74
2022/07/21 02:13:34;;;;;;;2.00;1.80;;;23.50;93.90;;;;;;5109276;27;45276;-74
2022/07/21 02:16:01;;;;;;;2.08;1.80;;;23.50;93.90;;;;;;5108786;27;45278;-74
2022/07/21 02:18:27;;;;;;;2.53;1.88;;;23.50;93.80;;;;;;5109024;27;45525;-74
2022/07/21 02:24:16;;;;;;;2.95;2.00;;;23.50;93.70;;;;;;5105990;27;45450;-74
2022/07/21 02:26:45;;;;;;;2.20;1.75;;;23.50;93.60;;;;;;5108441;27;46733;-74
2022/07/21 02:29:12;;;;;;;2.30;1.77;;;23.50;93.60;;;;;;5108824;27;45129;-74
2022/07/21 02:31:38;;;;;;;2.97;1.75;;;23.50;93.60;;;;;;5108713;27;45258;-74
2022/07/21 02:34:06;;;;;;;1.77;1.60;;;23.50;93.50;;;;;;5109347;27;45433;-73
2022/07/21 02:36:33;;;;;;;2.50;2.20;;;23.50;93.50;;;;;;5108675;27;47506;-74
2022/07/21 02:38:59;;;;;;;2.20;2.00;;;23.50;93.50;;;;;;5108340;27;45224;-74
2022/07/21 02:41:26;;;;;;;3.03;2.20;;;23.50;93.40;;;;;;5108532;27;45306;-74
2022/07/21 02:43:54;;;;;;;3.45;2.13;;;23.50;93.40;;;;;;5108602;27;45561;-74
2022/07/21 02:46:21;;;;;;;2.20;2.00;;;23.50;93.30;;;;;;5107053;27;46623;-74
2022/07/21 02:48:48;;;;;;;2.28;2.08;;;23.50;93.30;;;;;;5108230;27;45914;-74
2022/07/21 02:51:14;;;;;;;2.15;1.95;;;23.50;93.40;;;;;;5108285;27;45174;-74
2022/07/21 02:57:03;;;;;;;2.65;2.00;;;23.50;93.30;;;;;;5105244;27;45137;-74
2022/07/21 02:59:31;;;;;;;2.75;2.15;;;23.50;93.30;;;;;;5108124;27;45201;-74
2022/07/21 03:05:20;;;;;;;2.25;2.05;;;23.50;93.30;;;;;;5105454;27;45217;-74
2022/07/21 03:07:47;;;;;;;2.28;2.08;;;23.50;93.40;;;;;;5107881;27;47976;-74
2022/07/21 03:10:14;;;;;;;2.47;2.28;;;23.50;93.50;;;;;;5107898;27;46028;-74
2022/07/21 03:12:40;;;;;;;2.15;1.92;;;23.40;93.50;;;;;;5108110;27;45216;-74
2022/07/21 03:15:10;;;;;;;2.55;2.20;;;23.40;93.50;;;;;;5108225;27;45131;-74
2022/07/21 03:17:37;;;;;;;3.50;2.38;;;23.40;93.50;;;;;;5108185;27;47728;-74
2022/07/21 03:20:04;;;;;;;2.95;2.30;;;23.40;93.60;;;;;;5107932;27;45306;-74
2022/07/21 03:22:31;;;;;;;2.67;2.10;;;23.40;93.60;;;;;;5107902;27;45225;-74
2022/07/21 03:24:58;;;;;;;2.28;2.08;;;23.40;93.60;;;;;;5108545;27;45110;-73
2022/07/21 03:27:25;;;;;;;2.40;2.20;;;23.40;93.60;;;;;;5107510;27;47503;-74
2022/07/21 03:29:53;;;;;;;2.88;2.28;;;23.40;93.60;;;;;;5108275;27;45232;-74
2022/07/21 03:32:21;;;;;;;3.50;2.60;;;23.40;93.60;;;;;;5107629;27;45230;-74
2022/07/21 03:34:47;;;;;;;2.50;2.30;;;23.40;93.60;;;;;;5107857;27;45371;-74
2022/07/21 03:37:14;;;;;;;2.33;2.08;;;23.40;93.60;;;;;;5107585;27;45491;-74
2022/07/21 03:39:41;;;;;;;2.63;2.38;;;23.40;93.60;;;;;;5107571;27;45319;-74
2022/07/21 03:42:08;;;;;;;2.50;2.22;;;23.40;93.60;;;;;;5107980;27;45125;-74
2022/07/21 03:44:34;;;;;;;2.90;2.60;;;23.40;93.70;;;;;;5107702;27;45204;-74
2022/07/21 03:47:02;;;;;;;2.50;2.22;;;23.40;93.60;;;;;;5107343;27;46282;-74
2022/07/21 03:49:31;;;;;;;3.65;2.53;;;23.40;93.60;;;;;;5107297;27;45228;-74
2022/07/21 03:51:57;;;;;;;2.30;2.10;;;23.40;93.60;;;;;;5107511;27;45229;-74
2022/07/21 03:54:24;;;;;;;2.88;2.33;;;23.40;93.60;;;;;;5107482;27;45147;-74
2022/07/21 04:00:16;;;;;;;2.83;2.42;;;23.30;93.70;;;;;;5104308;27;45183;-74
2022/07/21 04:02:43;;;;;;;3.08;2.38;;;23.40;93.70;;;;;;5107686;27;45219;-74
2022/07/21 04:05:13;;;;;;;3.05;2.45;;;23.40;93.70;;;;;;5107474;27;45224;-73
2022/07/21 04:07:41;;;;;;;2.90;2.38;;;23.40;93.70;;;;;;5106723;27;48740;-74
2022/07/21 04:10:09;;;;;;;3.15;2.60;;;23.30;93.70;;;;;;5107088;27;45173;-74
2022/07/21 04:12:36;;;;;;;2.33;2.13;;;23.40;93.70;;;;;;5107054;27;45239;-74
2022/07/21 04:18:47;;;;;;;3.25;2.50;;;23.40;93.70;;;;;;5103831;27;45691;-74
2022/07/21 04:21:15;;;;;;;2.85;2.50;;;23.30;93.70;;;;;;5107084;27;45385;-74
2022/07/21 04:23:42;;;;;;;3.00;2.30;;;23.30;93.70;;;;;;5107219;27;45158;-74
2022/07/21 04:26:08;;;;;;;2.20;2.00;;;23.40;93.70;;;;;;5107307;27;45100;-74
2022/07/21 04:28:35;;;;;;;2.80;2.53;;;23.30;93.60;;;;;;5106668;27;48254;-74
2022/07/21 04:31:02;;;;;;;3.78;2.58;;;23.30;93.60;;;;;;5106719;27;45133;-74
2022/07/21 04:33:29;;;;;;;3.08;2.35;;;23.30;93.60;;;;;;5107091;27;45261;-75
2022/07/21 04:35:56;;;;;;;2.63;2.42;;;23.30;93.60;;;;;;5107005;27;45144;-73
2022/07/21 04:38:24;;;;;;;2.33;2.13;;;23.30;93.60;;;;;;5106547;27;45476;-74
2022/07/21 04:40:51;;;;;;;2.45;2.17;;;23.30;93.50;;;;;;5106442;27;45239;-74
2022/07/21 04:43:17;;;;;;;3.05;2.55;;;23.30;93.50;;;;;;5106692;27;45357;-74
2022/07/21 04:45:44;;;;;;;3.10;2.42;;;23.30;93.50;;;;;;5106586;27;45342;-74
2022/07/21 04:48:11;;;;;;;2.92;2.63;;;23.30;93.40;;;;;;5106317;27;47516;-74
2022/07/21 04:50:38;;;;;;;2.75;2.13;;;23.30;93.30;;;;;;5106040;27;45956;-74
2022/07/21 04:53:04;;;;;;;2.83;2.53;;;23.30;93.10;;;;;;5106488;27;45131;-74
2022/07/21 04:56:06;;;;;;;2.60;2.30;;;23.30;92.80;;;;;;5106724;27;45560;-74
2022/07/21 04:58:32;;;;;;;2.80;2.22;;;23.30;92.80;;;;;;5106369;27;45379;-74
2022/07/21 05:00:59;;;;;;;3.60;2.70;;;23.30;93.00;;;;;;5106215;27;45319;-75
2022/07/21 05:06:48;;;;;;;3.88;2.67;;;23.30;93.20;;;;;;5105563;27;45151;-74
2022/07/21 05:09:15;;;;;;;2.80;2.42;;;23.40;93.50;;;;;;5106358;27;45565;-76
2022/07/21 05:11:43;;;;;;;2.70;2.45;;;23.40;93.70;;;;;;5109591;27;45098;-75
2022/07/21 05:14:10;;;;;;;3.10;2.80;;;23.40;93.70;;;;;;5109887;27;45240;-74
2022/07/21 05:16:37;;;;;;;3.15;2.55;;;23.40;93.80;;;;;;5109979;27;45607;-74
2022/07/21 05:19:04;;;;;;;2.75;2.15;;;23.40;93.70;;;;;;5110380;27;46712;-74
2022/07/21 05:21:31;;;;;;;2.97;2.55;;;23.40;93.80;;;;;;5109659;27;45931;-74
2022/07/21 05:23:58;;;;;;;2.92;2.60;;;23.40;93.70;;;;;;5110063;27;45319;-74
2022/07/21 05:26:25;;;;;;;2.78;2.55;;;23.40;93.70;;;;;;5110014;27;45231;-74
2022/07/21 05:32:15;;;;;;;2.28;2.08;;;23.40;93.70;;;;;;5106668;27;45157;-74
2022/07/21 05:34:42;;;;;;;2.67;2.42;;;23.30;93.60;;;;;;5109802;27;45395;-74
2022/07/21 05:37:09;;;;;;;2.45;2.25;;;23.30;93.70;;;;;;5109877;27;45381;-74
2022/07/21 05:39:36;;;;;;;2.63;2.40;;;23.40;93.60;;;;;;5109344;27;46605;-74
2022/07/21 05:42:03;;;;;;;2.40;1.92;;;23.40;93.60;;;;;;5109386;27;45166;-74
2022/07/21 05:44:29;;;;;;;2.40;2.20;;;23.40;93.60;;;;;;5109757;27;45217;-74
2022/07/21 05:46:56;;;;;;;2.60;2.30;;;23.40;93.40;;;;;;5109406;27;45568;-74
2022/07/21 05:49:24;;;;;;;2.55;2.22;;;23.40;93.30;;;;;;5109165;27;46317;-74
2022/07/21 05:51:51;;;;;;;2.47;2.00;;;23.40;93.20;;;;;;5109168;27;45075;-74
2022/07/21 05:54:18;;;;;;;3.33;2.40;;;23.40;93.10;;;;;;5109184;27;45224;-75
2022/07/21 05:56:45;;;;;;;2.70;2.35;;;23.40;93.10;;;;;;5109360;27;45532;-74
2022/07/21 05:59:11;;;;;;;2.55;2.20;;;23.40;93.10;;;;;;5109253;27;46070;-74
2022/07/21 06:01:38;;;;;;;2.88;2.13;;;23.40;93.10;;;;;;5108988;27;45247;-74
2022/07/21 06:04:05;;;;;;;3.42;2.10;;;23.50;93.00;;;;;;5109370;27;45118;-74
2022/07/21 06:06:33;;;;;;;2.42;2.20;;;23.40;93.00;;;;;;5109097;27;45492;-74
2022/07/21 06:09:00;;;;;;;2.38;2.15;;;23.40;93.00;;;;;;5108924;27;45438;-74
2022/07/21 06:11:28;;;;;;;2.45;2.25;;;23.40;93.00;;;;;;5109095;27;45439;-74
2022/07/21 06:13:54;;;;;;;2.13;1.90;;;23.50;93.00;;;;;;5109142;27;45372;-73
2022/07/21 06:16:23;;;;;;;2.88;2.13;;;23.50;93.00;;;;;;5109254;27;45115;-74
2022/07/21 06:18:50;;;;;;;3.90;2.03;;;23.50;93.00;;;;;;5108699;27;46619;-74
2022/07/21 06:21:17;;;;;;;2.47;2.22;;;23.40;92.90;;;;;;5108767;27;45353;-74
2022/07/21 06:23:45;;;;;;;4.20;2.28;;;23.50;93.00;;;;;;5108819;27;45376;-74
2022/07/21 06:26:12;;;;;;;2.63;2.20;;;23.40;93.00;;;;;;5108703;27;45121;-74
2022/07/21 06:28:39;;;;;;;2.33;2.05;;;23.40;93.00;;;;;;5108653;27;45304;-74
2022/07/21 06:31:06;;;;;;;2.50;2.03;;;23.40;93.10;;;;;;5108521;27;45305;-74
2022/07/21 06:33:33;;;;;;;2.17;1.98;;;23.40;93.10;;;;;;5108924;27;45297;-74
2022/07/21 06:36:00;;;;;;;1.70;1.60;;;23.50;93.10;;;;;;5108860;27;45455;-75
2022/07/21 06:38:26;;;;;;;2.90;2.17;;;23.50;93.10;;;;;;5108332;27;48529;-74
2022/07/21 06:40:55;;;;;;;3.17;2.25;;;23.40;93.10;;;;;;5108398;27;45150;-74
2022/07/21 06:43:21;;;;;;;2.13;1.80;;;23.40;93.10;;;;;;5108329;27;45193;-74
2022/07/21 06:45:48;;;;;;;2.35;2.15;;;23.40;93.10;;;;;;5108450;27;45226;-75
2022/07/21 06:48:15;;;;;;;4.15;2.33;;;23.40;93.10;;;;;;5107991;27;46575;-74
2022/07/21 06:50:42;;;;;;;3.88;2.55;;;23.40;93.10;;;;;;5108161;27;45125;-74
2022/07/21 06:53:09;;;;;;;2.40;2.20;;;23.40;93.10;;;;;;5108344;27;45169;-74
2022/07/21 06:55:36;;;;;;;2.50;2.30;;;23.40;93.10;;;;;;5108369;27;45371;-74
2022/07/21 06:58:12;;;;;;;2.40;2.17;;;23.40;93.10;;;;;;5107747;27;47609;-74
2022/07/21 07:00:39;;;;;;;2.28;1.90;;;23.40;93.10;;;;;;5107846;27;45324;-74
2022/07/21 07:03:06;;;;;;;2.35;2.15;;;23.50;93.00;;;;;;5106276;27;45456;-74
2022/07/21 07:05:32;;;;;;;2.78;2.08;;;23.50;93.10;;;;;;5107868;27;45192;-74
2022/07/21 07:08:00;;;;;;;2.70;2.20;;;23.50;93.20;;;;;;5107691;27;46666;-75
2022/07/21 07:10:27;;;;;;;2.90;1.92;;;23.50;93.20;;;;;;5108121;27;45349;-75
2022/07/21 07:12:54;;;;;;;3.80;2.15;;;23.50;93.10;;;;;;5108481;27;45156;-74
2022/07/21 07:15:23;;;;;;;3.10;2.00;;;23.50;93.10;;;;;;5107944;27;45553;-74
2022/07/21 07:21:11;;;;;;;2.78;1.83;;;23.50;93.10;;;;;;5104844;27;45248;-74
2022/07/21 07:24:15;;;;;;;1.92;1.73;;;23.50;93.00;;;;;;5107941;27;45269;-74
2022/07/21 07:26:42;;;;;;;2.67;2.20;;;23.50;92.80;;;;;;5107891;27;45288;-74
2022/07/21 07:29:40;;;;;;;1.80;1.70;;;23.50;92.70;;;;;;5107271;27;47548;-74
2022/07/21 07:32:09;;;;;;;1.95;1.60;;;23.50;92.60;;;;;;5106925;27;45300;-75
2022/07/21 07:34:35;;;;;;;2.08;1.70;;;23.50;93.00;;;;;;5105655;27;45353;-74
2022/07/21 07:37:02;;;;;;;1.90;1.70;;;23.50;92.60;;;;;;5092167;27;45540;-74
2022/07/21 07:39:29;;;;;;;2.10;1.75;;;23.50;92.60;;;;;;5106949;27;47926;-74
2022/07/21 07:41:56;;;;;;;2.08;1.70;;;23.50;92.60;;;;;;5107039;27;45550;-74
2022/07/21 07:44:23;;;;;;;2.10;1.90;;;23.50;92.60;;;;;;5106844;27;45464;-74
2022/07/21 07:46:50;;;;;;;3.45;1.55;;;23.50;92.60;;;;;;5106966;27;45509;-74
2022/07/21 07:49:18;;;;;;;2.20;1.70;;;23.50;92.50;;;;;;5106819;27;48540;-75
2022/07/21 07:51:45;;;;;;;2.15;1.60;;;23.50;92.50;;;;;;5106856;27;45273;-75
2022/07/21 07:54:12;;;;;;;2.22;1.83;;;23.50;92.50;;;;;;5107256;27;45229;-74
2022/07/21 07:57:13;;;;;;;4.07;1.95;;;23.50;92.50;;;;;;5107377;27;45384;-74
2022/07/21 07:59:52;;;;;;;2.42;1.85;;;23.50;92.40;;;;;;5106931;27;46791;-74
2022/07/21 08:02:19;;;;;;;2.47;1.70;;;23.50;92.30;;;;;;5106812;27;45662;-74
2022/07/21 08:04:47;;;;;;;2.45;2.03;;;23.50;92.30;;;;;;5106939;27;45207;-74
2022/07/21 08:07:14;;;;;;;2.10;1.90;;;23.50;92.30;;;;;;5107055;27;45250;-74
2022/07/21 08:09:41;;;;;;;1.80;1.63;;;23.50;92.30;;;;;;5106624;27;48208;-74
2022/07/21 08:12:08;;;;;;;2.47;1.58;;;23.50;92.30;;;;;;5106480;27;45283;-74
2022/07/21 08:14:35;;;;;;;1.88;1.70;;;23.50;92.30;;;;;;5106635;27;45445;-74
2022/07/21 08:17:02;;;;;;;3.08;1.70;;;23.50;92.20;;;;;;5106685;27;45467;-74
2022/07/21 08:19:28;;;;;;;2.53;1.92;;;23.50;92.20;;;;;;5106373;27;47354;-74
2022/07/21 08:21:56;;;;;;;2.08;1.70;;;23.50;92.10;;;;;;5105072;27;45231;-74
2022/07/21 08:24:23;;;;;;;3.38;2.30;;;23.50;92.10;;;;;;5098886;27;45464;-74
2022/07/21 08:26:50;;;;;;;3.40;2.17;;;23.50;92.10;;;;;;5105293;27;45378;-74
2022/07/21 08:29:17;;;;;;;2.22;1.90;;;23.50;92.10;;;;;;5104924;27;46634;-74
2022/07/21 08:31:44;;;;;;;3.10;2.33;;;23.50;92.20;;;;;;5092968;27;45438;-74
2022/07/21 08:34:11;;;;;;;3.42;2.40;;;23.50;92.30;;;;;;5097948;27;45338;-75
2022/07/21 08:36:38;;;;;;;3.28;2.58;;;23.60;92.10;;;;;;5106329;27;45519;-74
2022/07/21 08:39:06;;;;;;;2.38;2.13;;;23.60;92.10;;;;;;5105929;27;45265;-74
2022/07/21 08:41:33;;;;;;;3.80;2.20;;;23.60;91.90;;;;;;5106214;27;45264;-74
2022/07/21 08:43:59;;;;;;;2.20;2.00;;;23.60;91.80;;;;;;5093869;27;45213;-74
2022/07/21 08:46:26;;;;;;;3.20;2.30;;;23.60;91.80;;;;;;5089558;28;45222;-74
2022/07/21 08:48:55;;;;;;;4.28;2.63;;;23.60;91.70;;;;;;5089638;28;47037;-74
2022/07/21 08:51:21;;;;;;;4.28;2.60;;;23.60;91.80;;;;;;5089167;28;45227;-74
2022/07/21 08:53:48;;;;;;;4.07;2.58;;;23.60;91.80;;;;;;5089266;28;45232;-74
2022/07/21 08:56:17;;;;;;;2.50;2.20;;;23.60;91.80;;;;;;5089737;28;45606;-74
2022/07/21 08:58:44;;;;;;;2.58;2.10;;;23.60;91.80;;;;;;5089591;28;45519;-74
2022/07/21 09:01:10;;;;;;;3.42;2.28;;;23.60;91.80;;;;;;5089394;28;45239;-74
2022/07/21 09:03:37;;;;;;;4.13;2.35;;;23.60;91.80;;;;;;5088955;28;45214;-74
2022/07/21 09:06:07;;;;;;;3.13;2.58;;;23.60;91.90;;;;;;5089723;28;45124;-74
2022/07/21 09:08:36;;;;;;;2.38;2.15;;;23.60;91.80;;;;;;5089472;28;47082;-74
2022/07/21 09:11:14;;;;;;;3.00;2.63;;;23.60;91.80;;;;;;5089593;28;45144;-74
2022/07/21 09:13:44;;;;;;;3.42;2.47;;;23.60;91.70;;;;;;5089588;28;45069;-74
2022/07/21 09:16:11;;;;;;;3.22;2.38;;;23.70;91.70;;;;;;5088633;28;45327;-74
2022/07/21 09:18:49;;;;;;;2.40;2.15;;;23.70;91.70;;;;;;5091286;28;46553;-74
2022/07/21 09:21:18;;;;;;;3.05;2.00;;;23.70;91.70;;;;;;5089615;28;45209;-74
2022/07/21 09:23:45;;;;;;;2.83;2.20;;;23.60;91.70;;;;;;5089214;28;45382;-74
2022/07/21 09:26:12;;;;;;;2.60;2.20;;;23.70;91.60;;;;;;5088796;27;45139;-74
2022/07/21 09:28:40;;;;;;;4.90;2.20;;;23.70;91.60;;;;;;5088864;28;46630;-74
2022/07/21 09:31:10;;;;;;;2.47;2.00;;;23.60;91.60;;;;;;5088779;28;45371;-74
2022/07/21 09:33:39;;;;;;;3.70;2.38;;;23.70;91.60;;;;;;5088364;28;45360;-74
2022/07/21 09:36:09;;;;;;;3.55;2.25;;;23.70;91.60;;;;;;5087845;28;45472;-74
2022/07/21 09:38:38;;;;;;;2.70;1.98;;;23.70;91.50;;;;;;5087517;28;46716;-74
2022/07/21 09:41:12;;;;;;;3.47;2.20;;;23.70;91.50;;;;;;5087125;28;45206;-74
2022/07/21 09:43:48;;;;;;;2.47;2.28;;;23.70;91.50;;;;;;5096559;27;45249;-74
2022/07/21 09:46:18;;;;;;;3.13;2.40;;;23.70;91.40;;;;;;5093474;27;45608;-75
2022/07/21 09:48:48;;;;;;;2.20;2.00;;;23.70;91.40;;;;;;5107680;27;45426;-74
2022/07/21 09:51:27;;;;;;;3.05;2.00;;;23.70;91.30;;;;;;5100358;27;45206;-75
2022/07/21 09:54:03;;;;;;;3.08;2.10;;;23.70;91.30;;;;;;5087988;28;45538;-75
2022/07/21 09:56:32;;;;;;;2.63;2.17;;;23.70;91.20;;;;;;5102508;27;45334;-75
2022/07/21 09:59:13;;;;;;;3.97;2.47;;;23.70;91.30;;;;;;5108081;27;47697;-74
2022/07/21 10:01:42;;;;;;;4.57;2.17;;;23.70;91.20;;;;;;5108058;27;45764;-74
2022/07/21 10:04:10;;;;;;;2.70;2.22;;;23.70;91.20;;;;;;5092350;27;45449;-74
2022/07/21 10:06:40;;;;;;;2.50;2.20;;;23.70;91.20;;;;;;5089328;27;45483;-74
2022/07/21 10:09:09;;;;;;;2.60;2.15;;;23.70;91.20;;;;;;5095985;27;45435;-74
2022/07/21 10:11:36;;;;;;;3.00;2.13;;;23.70;91.20;;;;;;5098941;27;45282;-74
2022/07/21 10:14:04;;;;;;;3.90;2.38;;;23.70;91.10;;;;;;5097054;27;45509;-73
2022/07/21 10:16:31;;;;;;;3.58;2.30;;;23.70;91.10;;;;;;5102503;27;45325;-74
2022/07/21 10:19:06;;;;;;;3.00;2.53;;;23.70;91.10;;;;;;5097290;27;45488;-73
2022/07/21 10:21:41;;;;;;;3.33;2.80;;;23.70;91.10;;;;;;5092360;27;45320;-74
2022/07/21 10:24:11;;;;;;;4.00;2.78;;;23.70;91.10;;;;;;5090399;27;45494;-74
2022/07/21 10:26:39;;;;;;;3.88;2.88;;;23.70;91.10;;;;;;5102986;27;45259;-73
2022/07/21 10:29:06;;;;;;;3.15;2.28;;;23.70;91.20;;;;;;5103218;27;45420;-74
2022/07/21 10:31:43;;;;;;;5.95;2.65;;;23.60;91.20;;;;;;5105583;27;46355;-74
2022/07/21 10:34:11;;;;;;;3.35;2.40;;;23.70;91.30;;;;;;5098800;27;45420;-73
2022/07/21 10:36:42;;;;;;;6.72;2.40;;;23.70;91.40;;;;;;5093824;27;45442;-74
2022/07/21 10:39:25;;;;;;;3.28;2.78;;;23.70;91.40;;;;;;5089349;27;46284;-75
2022/07/21 10:41:54;;;;;;;5.10;2.80;;;23.60;91.40;;;;;;5095169;27;45264;-74
2022/07/21 10:44:47;;;;;;;3.78;2.53;;;23.60;91.40;;;;;;5096761;27;45204;-74
2022/07/21 10:47:18;;;;;;;3.67;2.50;;;23.70;91.60;;;;;;5086641;27;45295;-74
2022/07/21 10:49:55;;;;;;;3.60;2.55;;;23.60;91.60;;;;;;5094909;27;47299;-74
2022/07/21 10:52:59;;;;;;;3.22;2.60;;;23.70;91.70;;;;;;5088765;27;45396;-73
2022/07/21 10:55:31;;;;;;;3.45;2.70;;;23.60;91.60;;;;;;5092736;27;45451;-74
2022/07/21 10:58:16;;;;;;;3.28;2.97;;;23.60;91.70;;;;;;5107363;27;45180;-74
2022/07/21 11:00:47;;;;;;;4.50;2.95;;;23.60;92.10;;;;;;5107596;27;48063;-74
2022/07/21 11:03:17;;;;;;;3.97;2.83;;;23.60;92.20;;;;;;5106987;27;45198;-72
2022/07/21 11:06:17;;;;;;;5.05;3.08;;;23.70;92.40;;;;;;5103608;27;45520;-74
2022/07/21 11:08:45;;;;;;;3.25;2.72;;;23.60;92.40;;;;;;5100430;27;45348;-74
2022/07/21 11:11:14;;;;;;;4.30;2.80;;;23.60;92.40;;;;;;5103059;27;47929;-73
2022/07/21 11:14:00;;;;;;;4.32;2.70;;;23.60;92.40;;;;;;5103149;27;45456;-74
2022/07/21 11:17:09;;;;;;;3.53;2.53;;;23.70;92.60;;;;;;5078658;27;45484;-74
2022/07/21 11:19:39;;;;;;;3.10;2.80;;;23.70;92.70;;;;;;5088315;27;45679;-74
2022/07/21 11:22:12;;;;;;;4.72;3.05;;;23.70;92.70;;;;;;5086134;27;46320;-74
2022/07/21 11:24:41;;;;;;;3.22;2.78;;;23.70;92.80;;;;;;5090122;27;45469;-74
2022/07/21 11:27:09;;;;;;;4.70;2.67;;;23.70;92.60;;;;;;5098221;27;45399;-74
2022/07/21 11:29:37;;;;;;;4.20;2.80;;;23.70;92.80;;;;;;5099139;27;45494;-75
2022/07/21 11:32:05;;;;;;;3.08;2.50;;;23.70;92.80;;;;;;5096712;27;46383;-74
2022/07/21 11:34:44;;;;;;;3.58;2.45;;;23.70;92.90;;;;;;5103432;27;45335;-74
2022/07/21 11:37:14;;;;;;;3.33;2.50;;;23.70;92.90;;;;;;5094193;27;45257;-73
2022/07/21 11:39:40;;;;;;;3.20;2.50;;;23.70;92.90;;;;;;5098042;27;45367;-74
2022/07/21 11:42:09;;;;;;;3.22;2.70;;;23.70;92.90;;;;;;5087916;27;45383;-73
2022/07/21 11:44:36;;;;;;;3.97;2.50;;;23.70;92.90;;;;;;5090532;27;45333;-74
2022/07/21 11:47:06;;;;;;;3.58;2.80;;;23.70;93.00;;;;;;5097046;27;45348;-73
2022/07/21 11:49:33;;;;;;;2.25;2.05;;;23.70;92.90;;;;;;5098950;27;45721;-74
2022/07/21 11:52:02;;;;;;;3.00;2.70;;;23.60;92.90;;;;;;5099884;27;47924;-73
2022/07/21 11:54:33;;;;;;;2.28;2.08;;;23.60;92.90;;;;;;5101541;27;45449;-74
2022/07/21 11:57:01;;;;;;;3.20;2.42;;;23.60;92.90;;;;;;5088029;27;45478;-74
2022/07/21 11:59:28;;;;;;;3.88;2.67;;;23.60;92.90;;;;;;5099059;27;45434;-74
2022/07/21 12:02:00;;;;;;;2.97;2.60;;;23.60;92.90;;;;;;5096085;27;48206;-74
2022/07/21 12:04:38;;;;;;;2.33;2.13;;;23.60;92.70;;;;;;5091003;27;45532;-74
2022/07/21 12:07:11;;;;;;;2.38;2.13;;;23.60;93.20;;;;;;5090537;27;45517;-74
2022/07/21 12:09:40;;;;;;;2.63;2.40;;;23.60;92.80;;;;;;5095001;27;45194;-74
2022/07/21 12:12:08;;;;;;;2.50;2.30;;;23.60;92.60;;;;;;5086686;27;48106;-74
2022/07/21 12:14:46;;;;;;;3.30;2.45;;;23.60;92.60;;;;;;5100677;27;45405;-74
2022/07/21 12:17:13;;;;;;;2.22;1.90;;;23.60;92.70;;;;;;5084173;27;45248;-74
2022/07/21 12:19:40;;;;;;;2.67;2.33;;;23.60;92.60;;;;;;5083510;28;45249;-74
2022/07/21 12:22:07;;;;;;;3.38;2.35;;;23.60;92.70;;;;;;5089088;27;47511;-73
2022/07/21 12:25:02;;;;;;;3.20;2.28;;;23.60;92.70;;;;;;5088823;27;45418;-74
2022/07/21 12:27:29;;;;;;;2.78;2.13;;;23.60;92.60;;;;;;5087829;27;45352;-73
2022/07/21 12:29:55;;;;;;;3.15;2.33;;;23.60;92.50;;;;;;5096179;27;45446;-74
2022/07/21 12:32:50;;;;;;;3.83;2.35;;;23.60;92.70;;;;;;5095799;27;48055;-74
2022/07/21 12:35:22;;;;;;;4.38;2.47;;;23.60;92.70;;;;;;5048936;27;45328;-74
2022/07/21 12:37:57;;;;;;;3.08;2.20;;;23.60;92.90;;;;;;5095885;27;45379;-74
2022/07/21 12:40:26;;;;;;;2.35;2.03;;;23.60;93.00;;;;;;5101175;27;45437;-74
2022/07/21 12:43:08;;;;;;;3.63;1.80;;;23.60;92.70;;;;;;5088709;27;45577;-74
2022/07/21 12:45:46;;;;;;;2.45;1.90;;;23.60;92.90;;;;;;5095737;27;45357;-73
2022/07/21 12:48:15;;;;;;;2.22;2.03;;;23.60;93.00;;;;;;5092424;27;45550;-74
2022/07/21 12:50:42;;;;;;;3.45;2.08;;;23.60;93.00;;;;;;5097214;27;45401;-74
2022/07/21 12:53:09;;;;;;;2.08;1.88;;;23.60;93.10;;;;;;5104326;27;46316;-74
2022/07/21 12:55:38;;;;;;;1.92;1.73;;;23.60;93.00;;;;;;5101849;27;45422;-74
2022/07/21 12:58:05;;;;;;;2.70;1.92;;;23.60;93.10;;;;;;5101798;27;45333;-74
2022/07/21 13:00:33;;;;;;;2.33;2.00;;;23.50;93.00;;;;;;5097411;27;45416;-74
2022/07/21 13:03:00;;;;;;;2.22;1.75;;;23.50;93.10;;;;;;5092874;27;48204;-73
2022/07/21 13:05:27;;;;;;;1.88;1.70;;;23.50;93.20;;;;;;5086506;27;45396;-73
2022/07/21 13:07:54;;;;;;;2.35;1.90;;;23.50;93.40;;;;;;5093902;27;45544;-74
2022/07/21 13:10:21;;;;;;;2.22;1.80;;;23.50;93.40;;;;;;5094804;27;45375;-74
2022/07/21 13:12:50;;;;;;;2.15;1.90;;;23.50;93.40;;;;;;5096550;27;46854;-74
2022/07/21 13:15:17;;;;;;;2.35;1.95;;;23.50;93.50;;;;;;5100838;27;45425;-73
2022/07/21 13:17:44;;;;;;;1.98;1.75;;;23.50;93.50;;;;;;5095994;27;45416;-74
2022/07/21 13:20:12;;;;;;;3.20;1.95;;;23.50;93.50;;;;;;5082595;27;45308;-74
2022/07/21 13:22:39;;;;;;;3.67;2.20;;;23.50;93.70;;;;;;5092983;27;47599;-74
2022/07/21 13:25:07;;;;;;;1.98;1.70;;;23.50;93.70;;;;;;5099372;27;45565;-74
2022/07/21 13:27:35;;;;;;;3.83;2.53;;;23.50;93.70;;;;;;5089666;27;45376;-74
2022/07/21 13:30:04;;;;;;;3.45;2.33;;;23.50;93.80;;;;;;5098184;27;45528;-75
2022/07/21 13:32:31;;;;;;;2.75;2.30;;;23.50;93.90;;;;;;5099949;27;47375;-74